sensor_id;sensor_type;location;lat;lon;timestamp;P1;durP1;ratioP1;P2;durP2;ratioP2
68475;SDS011;55464;48.266;14.188;2022-08-03T00:02:22;5.57;;;2.50;;
68475;SDS011;55464;48.266;14.188;2022-08-03T00:04:48;3.63;;;2.25;;
68475;SDS011;55464;48.266;14.188;2022-08-03T00:07:14;5.03;;;2.40;;
68475;SDS011;55464;48.266;14.188;2022-08-03T00:09:40;3.47;;;2.38;;
68475;SDS011;55464;48.266;14.188;2022-08-03T00:12:06;2.33;;;2.13;;
68475;SDS011;55464;48.266;14.188;2022-08-03T00:14:32;5.57;;;2.33;;
68475;SDS011;55464;48.266;14.188;2022-08-03T00:16:58;2.72;;;2.47;;
68475;SDS011;55464;48.266;14.188;2022-08-03T00:19:23;2.92;;;2.38;;
68475;SDS011;55464;48.266;14.188;2022-08-03T00:21:49;2.78;;;2.38;;
68475;SDS011;55464;48.266;14.188;2022-08-03T00:24:15;3.38;;;2.25;;
68475;SDS011;55464;48.266;14.188;2022-08-03T00:26:40;4.07;;;2.35;;
68475;SDS011;55464;48.266;14.188;2022-08-03T00:29:06;5.28;;;2.50;;
68475;SDS011;55464;48.266;14.188;2022-08-03T00:31:32;2.75;;;2.45;;
68475;SDS011;55464;48.266;14.188;2022-08-03T00:33:57;5.82;;;2.20;;
68475;SDS011;55464;48.266;14.188;2022-08-03T00:36:23;3.05;;;2.63;;
68475;SDS011;55464;48.266;14.188;2022-08-03T00:38:49;2.47;;;2.22;;
68475;SDS011;55464;48.266;14.188;2022-08-03T00:41:14;6.60;;;2.50;;
68475;SDS011;55464;48.266;14.188;2022-08-03T00:43:40;2.58;;;2.38;;
68475;SDS011;55464;48.266;14.188;2022-08-03T00:46:06;3.67;;;2.42;;
68475;SDS011;55464;48.266;14.188;2022-08-03T00:48:31;3.20;;;2.45;;
68475;SDS011;55464;48.266;14.188;2022-08-03T00:50:57;4.07;;;2.60;;
68475;SDS011;55464;48.266;14.188;2022-08-03T00:53:23;3.03;;;2.58;;
68475;SDS011;55464;48.266;14.188;2022-08-03T00:55:49;2.70;;;2.25;;
68475;SDS011;55464;48.266;14.188;2022-08-03T00:58:15;4.28;;;2.75;;
68475;SDS011;55464;48.266;14.188;2022-08-03T01:00:41;2.60;;;2.20;;
68475;SDS011;55464;48.266;14.188;2022-08-03T01:03:07;3.75;;;2.70;;
68475;SDS011;55464;48.266;14.188;2022-08-03T01:05:37;3.30;;;2.78;;
68475;SDS011;55464;48.266;14.188;2022-08-03T01:11:18;3.55;;;2.90;;
68475;SDS011;55464;48.266;14.188;2022-08-03T01:16:20;3.22;;;2.72;;
68475;SDS011;55464;48.266;14.188;2022-08-03T01:18:57;4.07;;;2.95;;
68475;SDS011;55464;48.266;14.188;2022-08-03T01:21:39;2.78;;;2.58;;
68475;SDS011;55464;48.266;14.188;2022-08-03T01:27:11;4.45;;;2.80;;
68475;SDS011;55464;48.266;14.188;2022-08-03T01:35:00;4.82;;;3.10;;
68475;SDS011;55464;48.266;14.188;2022-08-03T01:37:37;3.22;;;2.95;;
68475;SDS011;55464;48.266;14.188;2022-08-03T01:40:19;3.65;;;2.85;;
68475;SDS011;55464;48.266;14.188;2022-08-03T01:42:48;3.33;;;2.75;;
68475;SDS011;55464;48.266;14.188;2022-08-03T01:45:15;3.92;;;2.80;;
68475;SDS011;55464;48.266;14.188;2022-08-03T01:47:43;4.97;;;3.15;;
68475;SDS011;55464;48.266;14.188;2022-08-03T01:50:10;3.95;;;2.72;;
68475;SDS011;55464;48.266;14.188;2022-08-03T01:52:38;2.85;;;2.53;;
68475;SDS011;55464;48.266;14.188;2022-08-03T01:55:06;4.63;;;3.22;;
68475;SDS011;55464;48.266;14.188;2022-08-03T01:57:34;3.40;;;2.85;;
68475;SDS011;55464;48.266;14.188;2022-08-03T02:00:01;5.10;;;2.80;;
68475;SDS011;55464;48.266;14.188;2022-08-03T02:02:28;4.10;;;2.85;;
68475;SDS011;55464;48.266;14.188;2022-08-03T02:04:56;3.63;;;2.90;;
68475;SDS011;55464;48.266;14.188;2022-08-03T02:07:24;4.25;;;3.05;;
68475;SDS011;55464;48.266;14.188;2022-08-03T02:09:51;6.70;;;2.90;;
68475;SDS011;55464;48.266;14.188;2022-08-03T02:12:19;5.03;;;3.03;;
68475;SDS011;55464;48.266;14.188;2022-08-03T02:14:47;3.58;;;3.08;;
68475;SDS011;55464;48.266;14.188;2022-08-03T02:17:14;4.07;;;3.00;;
68475;SDS011;55464;48.266;14.188;2022-08-03T02:19:43;4.53;;;3.25;;
68475;SDS011;55464;48.266;14.188;2022-08-03T02:24:37;4.57;;;3.03;;
68475;SDS011;55464;48.266;14.188;2022-08-03T02:27:04;4.78;;;2.95;;
68475;SDS011;55464;48.266;14.188;2022-08-03T02:29:41;3.67;;;3.17;;
68475;SDS011;55464;48.266;14.188;2022-08-03T02:32:13;4.80;;;3.40;;
68475;SDS011;55464;48.266;14.188;2022-08-03T02:34:44;6.20;;;3.20;;
68475;SDS011;55464;48.266;14.188;2022-08-03T02:37:12;4.30;;;3.13;;
68475;SDS011;55464;48.266;14.188;2022-08-03T02:39:42;4.82;;;3.22;;
68475;SDS011;55464;48.266;14.188;2022-08-03T02:42:09;5.55;;;3.72;;
68475;SDS011;55464;48.266;14.188;2022-08-03T02:44:38;3.50;;;2.90;;
68475;SDS011;55464;48.266;14.188;2022-08-03T02:47:08;5.47;;;3.00;;
68475;SDS011;55464;48.266;14.188;2022-08-03T02:49:35;6.70;;;3.25;;
68475;SDS011;55464;48.266;14.188;2022-08-03T02:52:03;7.28;;;3.00;;
68475;SDS011;55464;48.266;14.188;2022-08-03T02:54:33;5.13;;;3.28;;
68475;SDS011;55464;48.266;14.188;2022-08-03T02:57:00;3.42;;;2.90;;
68475;SDS011;55464;48.266;14.188;2022-08-03T02:59:27;3.65;;;3.25;;
68475;SDS011;55464;48.266;14.188;2022-08-03T03:01:55;5.00;;;3.20;;
68475;SDS011;55464;48.266;14.188;2022-08-03T03:04:23;6.45;;;3.55;;
68475;SDS011;55464;48.266;14.188;2022-08-03T03:06:49;3.63;;;3.00;;
68475;SDS011;55464;48.266;14.188;2022-08-03T03:09:15;5.32;;;3.38;;
68475;SDS011;55464;48.266;14.188;2022-08-03T03:11:41;3.90;;;3.30;;
68475;SDS011;55464;48.266;14.188;2022-08-03T03:14:09;6.60;;;3.80;;
68475;SDS011;55464;48.266;14.188;2022-08-03T03:16:37;4.93;;;3.10;;
68475;SDS011;55464;48.266;14.188;2022-08-03T03:19:04;5.47;;;3.30;;
68475;SDS011;55464;48.266;14.188;2022-08-03T03:21:31;5.18;;;3.55;;
68475;SDS011;55464;48.266;14.188;2022-08-03T03:23:57;4.38;;;2.63;;
68475;SDS011;55464;48.266;14.188;2022-08-03T03:26:23;5.25;;;3.00;;
68475;SDS011;55464;48.266;14.188;2022-08-03T03:28:49;4.00;;;3.10;;
68475;SDS011;55464;48.266;14.188;2022-08-03T03:31:16;3.08;;;2.75;;
68475;SDS011;55464;48.266;14.188;2022-08-03T03:33:41;5.25;;;3.33;;
68475;SDS011;55464;48.266;14.188;2022-08-03T03:36:08;5.93;;;2.92;;
68475;SDS011;55464;48.266;14.188;2022-08-03T03:38:35;4.68;;;3.10;;
68475;SDS011;55464;48.266;14.188;2022-08-03T03:41:01;4.22;;;3.20;;
68475;SDS011;55464;48.266;14.188;2022-08-03T03:43:28;4.57;;;3.30;;
68475;SDS011;55464;48.266;14.188;2022-08-03T03:45:54;3.55;;;3.20;;
68475;SDS011;55464;48.266;14.188;2022-08-03T03:48:21;6.80;;;3.72;;
68475;SDS011;55464;48.266;14.188;2022-08-03T03:50:49;6.90;;;3.28;;
68475;SDS011;55464;48.266;14.188;2022-08-03T03:53:14;4.60;;;3.28;;
68475;SDS011;55464;48.266;14.188;2022-08-03T03:55:40;5.13;;;3.25;;
68475;SDS011;55464;48.266;14.188;2022-08-03T03:58:06;6.00;;;3.10;;
68475;SDS011;55464;48.266;14.188;2022-08-03T04:00:32;4.15;;;3.47;;
68475;SDS011;55464;48.266;14.188;2022-08-03T04:02:58;4.63;;;3.22;;
68475;SDS011;55464;48.266;14.188;2022-08-03T04:05:24;7.10;;;3.33;;
68475;SDS011;55464;48.266;14.188;2022-08-03T04:08:15;5.07;;;3.08;;
68475;SDS011;55464;48.266;14.188;2022-08-03T04:13:55;6.65;;;3.53;;
68475;SDS011;55464;48.266;14.188;2022-08-03T04:16:28;4.80;;;3.40;;
68475;SDS011;55464;48.266;14.188;2022-08-03T04:19:07;5.07;;;3.13;;
68475;SDS011;55464;48.266;14.188;2022-08-03T04:21:39;6.15;;;3.63;;
68475;SDS011;55464;48.266;14.188;2022-08-03T04:24:07;3.38;;;3.08;;
68475;SDS011;55464;48.266;14.188;2022-08-03T04:26:37;3.80;;;3.35;;
68475;SDS011;55464;48.266;14.188;2022-08-03T04:29:04;3.30;;;3.00;;
68475;SDS011;55464;48.266;14.188;2022-08-03T04:31:31;5.05;;;2.70;;
68475;SDS011;55464;48.266;14.188;2022-08-03T04:33:59;4.55;;;3.03;;
68475;SDS011;55464;48.266;14.188;2022-08-03T04:36:26;5.10;;;3.28;;
68475;SDS011;55464;48.266;14.188;2022-08-03T04:41:27;5.28;;;2.97;;
68475;SDS011;55464;48.266;14.188;2022-08-03T04:43:55;5.03;;;2.88;;
68475;SDS011;55464;48.266;14.188;2022-08-03T04:46:22;3.72;;;3.13;;
68475;SDS011;55464;48.266;14.188;2022-08-03T04:48:51;4.38;;;2.63;;
68475;SDS011;55464;48.266;14.188;2022-08-03T04:51:18;2.63;;;2.42;;
68475;SDS011;55464;48.266;14.188;2022-08-03T04:53:44;6.40;;;3.63;;
68475;SDS011;55464;48.266;14.188;2022-08-03T04:56:10;3.33;;;2.80;;
68475;SDS011;55464;48.266;14.188;2022-08-03T04:58:36;8.45;;;3.28;;
68475;SDS011;55464;48.266;14.188;2022-08-03T05:01:01;4.35;;;3.38;;
68475;SDS011;55464;48.266;14.188;2022-08-03T05:03:27;5.20;;;3.38;;
68475;SDS011;55464;48.266;14.188;2022-08-03T05:05:53;6.50;;;3.63;;
68475;SDS011;55464;48.266;14.188;2022-08-03T05:08:19;5.80;;;3.65;;
68475;SDS011;55464;48.266;14.188;2022-08-03T05:10:45;6.63;;;3.50;;
68475;SDS011;55464;48.266;14.188;2022-08-03T05:13:11;7.13;;;3.95;;
68475;SDS011;55464;48.266;14.188;2022-08-03T05:15:37;6.07;;;3.95;;
68475;SDS011;55464;48.266;14.188;2022-08-03T05:18:03;5.95;;;3.83;;
68475;SDS011;55464;48.266;14.188;2022-08-03T05:20:29;3.90;;;3.25;;
68475;SDS011;55464;48.266;14.188;2022-08-03T05:22:55;8.65;;;3.70;;
68475;SDS011;55464;48.266;14.188;2022-08-03T05:25:21;5.60;;;3.78;;
68475;SDS011;55464;48.266;14.188;2022-08-03T05:27:47;6.63;;;4.28;;
68475;SDS011;55464;48.266;14.188;2022-08-03T05:30:13;8.10;;;4.15;;
68475;SDS011;55464;48.266;14.188;2022-08-03T05:32:39;5.10;;;3.38;;
68475;SDS011;55464;48.266;14.188;2022-08-03T05:35:05;3.83;;;3.30;;
68475;SDS011;55464;48.266;14.188;2022-08-03T05:37:31;6.82;;;3.92;;
68475;SDS011;55464;48.266;14.188;2022-08-03T05:39:57;9.80;;;3.83;;
68475;SDS011;55464;48.266;14.188;2022-08-03T05:42:23;7.43;;;3.58;;
68475;SDS011;55464;48.266;14.188;2022-08-03T05:44:48;4.70;;;3.60;;
68475;SDS011;55464;48.266;14.188;2022-08-03T05:47:14;4.25;;;3.83;;
68475;SDS011;55464;48.266;14.188;2022-08-03T05:49:40;10.02;;;4.22;;
68475;SDS011;55464;48.266;14.188;2022-08-03T05:52:06;7.50;;;4.20;;
68475;SDS011;55464;48.266;14.188;2022-08-03T05:54:31;8.85;;;4.13;;
68475;SDS011;55464;48.266;14.188;2022-08-03T05:56:57;7.35;;;4.15;;
68475;SDS011;55464;48.266;14.188;2022-08-03T05:59:23;6.70;;;4.50;;
68475;SDS011;55464;48.266;14.188;2022-08-03T06:01:50;6.80;;;3.97;;
68475;SDS011;55464;48.266;14.188;2022-08-03T06:04:16;8.45;;;3.85;;
68475;SDS011;55464;48.266;14.188;2022-08-03T06:06:42;6.40;;;3.85;;
68475;SDS011;55464;48.266;14.188;2022-08-03T06:09:08;8.35;;;3.80;;
68475;SDS011;55464;48.266;14.188;2022-08-03T06:11:37;4.18;;;3.28;;
68475;SDS011;55464;48.266;14.188;2022-08-03T06:14:04;4.90;;;3.72;;
68475;SDS011;55464;48.266;14.188;2022-08-03T06:16:30;4.75;;;3.65;;
68475;SDS011;55464;48.266;14.188;2022-08-03T06:18:56;6.07;;;4.03;;
68475;SDS011;55464;48.266;14.188;2022-08-03T06:21:21;5.32;;;3.58;;
68475;SDS011;55464;48.266;14.188;2022-08-03T06:23:47;3.90;;;3.22;;
68475;SDS011;55464;48.266;14.188;2022-08-03T06:26:13;6.72;;;3.63;;
68475;SDS011;55464;48.266;14.188;2022-08-03T06:28:39;3.88;;;3.40;;
68475;SDS011;55464;48.266;14.188;2022-08-03T06:31:05;3.97;;;3.38;;
68475;SDS011;55464;48.266;14.188;2022-08-03T06:33:30;4.03;;;3.28;;
68475;SDS011;55464;48.266;14.188;2022-08-03T06:35:56;4.40;;;3.50;;
68475;SDS011;55464;48.266;14.188;2022-08-03T06:38:22;5.60;;;3.72;;
68475;SDS011;55464;48.266;14.188;2022-08-03T06:40:47;6.70;;;2.92;;
68475;SDS011;55464;48.266;14.188;2022-08-03T06:43:14;3.15;;;2.85;;
68475;SDS011;55464;48.266;14.188;2022-08-03T06:45:40;4.70;;;2.90;;
68475;SDS011;55464;48.266;14.188;2022-08-03T06:48:07;4.80;;;3.08;;
68475;SDS011;55464;48.266;14.188;2022-08-03T06:50:35;4.40;;;3.33;;
68475;SDS011;55464;48.266;14.188;2022-08-03T06:53:03;5.47;;;2.78;;
68475;SDS011;55464;48.266;14.188;2022-08-03T06:55:30;3.42;;;2.80;;
68475;SDS011;55464;48.266;14.188;2022-08-03T06:57:56;3.95;;;2.60;;
68475;SDS011;55464;48.266;14.188;2022-08-03T07:00:23;3.38;;;2.58;;
68475;SDS011;55464;48.266;14.188;2022-08-03T07:02:49;2.90;;;2.53;;
68475;SDS011;55464;48.266;14.188;2022-08-03T07:05:15;3.00;;;2.70;;
68475;SDS011;55464;48.266;14.188;2022-08-03T07:07:40;2.72;;;2.53;;
68475;SDS011;55464;48.266;14.188;2022-08-03T07:10:07;2.38;;;2.17;;
68475;SDS011;55464;48.266;14.188;2022-08-03T07:12:35;3.58;;;2.70;;
68475;SDS011;55464;48.266;14.188;2022-08-03T07:15:02;4.22;;;3.25;;
68475;SDS011;55464;48.266;14.188;2022-08-03T07:17:29;4.15;;;2.67;;
68475;SDS011;55464;48.266;14.188;2022-08-03T07:19:56;3.78;;;2.60;;
68475;SDS011;55464;48.266;14.188;2022-08-03T07:22:23;4.47;;;3.05;;
68475;SDS011;55464;48.266;14.188;2022-08-03T07:24:48;4.40;;;2.85;;
68475;SDS011;55464;48.266;14.188;2022-08-03T07:27:14;4.45;;;2.97;;
68475;SDS011;55464;48.266;14.188;2022-08-03T07:29:40;3.80;;;3.15;;
68475;SDS011;55464;48.266;14.188;2022-08-03T07:32:06;3.67;;;3.10;;
68475;SDS011;55464;48.266;14.188;2022-08-03T07:34:32;4.80;;;3.70;;
68475;SDS011;55464;48.266;14.188;2022-08-03T07:36:58;6.15;;;3.40;;
68475;SDS011;55464;48.266;14.188;2022-08-03T07:39:24;4.85;;;3.20;;
68475;SDS011;55464;48.266;14.188;2022-08-03T07:41:49;5.53;;;3.53;;
68475;SDS011;55464;48.266;14.188;2022-08-03T07:44:16;6.10;;;3.47;;
68475;SDS011;55464;48.266;14.188;2022-08-03T07:46:42;3.95;;;2.83;;
68475;SDS011;55464;48.266;14.188;2022-08-03T07:49:08;6.85;;;3.85;;
68475;SDS011;55464;48.266;14.188;2022-08-03T07:51:33;6.30;;;3.88;;
68475;SDS011;55464;48.266;14.188;2022-08-03T07:53:59;6.13;;;3.90;;
68475;SDS011;55464;48.266;14.188;2022-08-03T07:56:25;11.45;;;3.80;;
68475;SDS011;55464;48.266;14.188;2022-08-03T07:58:52;6.43;;;3.72;;
68475;SDS011;55464;48.266;14.188;2022-08-03T08:01:18;4.00;;;3.13;;
68475;SDS011;55464;48.266;14.188;2022-08-03T08:03:44;6.50;;;3.78;;
68475;SDS011;55464;48.266;14.188;2022-08-03T08:06:10;6.85;;;3.88;;
68475;SDS011;55464;48.266;14.188;2022-08-03T08:08:39;7.15;;;4.10;;
68475;SDS011;55464;48.266;14.188;2022-08-03T08:11:06;6.13;;;4.40;;
68475;SDS011;55464;48.266;14.188;2022-08-03T08:13:32;6.40;;;3.80;;
68475;SDS011;55464;48.266;14.188;2022-08-03T08:15:57;7.32;;;4.45;;
68475;SDS011;55464;48.266;14.188;2022-08-03T08:18:23;7.18;;;3.60;;
68475;SDS011;55464;48.266;14.188;2022-08-03T08:20:49;5.43;;;4.22;;
68475;SDS011;55464;48.266;14.188;2022-08-03T08:23:15;6.47;;;3.83;;
68475;SDS011;55464;48.266;14.188;2022-08-03T08:25:47;5.60;;;3.47;;
68475;SDS011;55464;48.266;14.188;2022-08-03T08:28:15;5.28;;;3.42;;
68475;SDS011;55464;48.266;14.188;2022-08-03T08:30:42;3.95;;;2.78;;
68475;SDS011;55464;48.266;14.188;2022-08-03T08:33:07;4.63;;;2.70;;
68475;SDS011;55464;48.266;14.188;2022-08-03T08:35:33;5.75;;;3.10;;
68475;SDS011;55464;48.266;14.188;2022-08-03T08:37:59;4.03;;;3.10;;
68475;SDS011;55464;48.266;14.188;2022-08-03T08:40:25;2.80;;;2.58;;
68475;SDS011;55464;48.266;14.188;2022-08-03T08:42:51;3.55;;;2.85;;
68475;SDS011;55464;48.266;14.188;2022-08-03T08:45:17;3.30;;;2.65;;
68475;SDS011;55464;48.266;14.188;2022-08-03T08:47:45;2.80;;;2.40;;
68475;SDS011;55464;48.266;14.188;2022-08-03T08:50:12;2.50;;;2.30;;
68475;SDS011;55464;48.266;14.188;2022-08-03T08:52:42;3.22;;;2.33;;
68475;SDS011;55464;48.266;14.188;2022-08-03T08:55:12;2.72;;;1.95;;
68475;SDS011;55464;48.266;14.188;2022-08-03T08:57:48;4.53;;;2.45;;
68475;SDS011;55464;48.266;14.188;2022-08-03T09:00:16;3.72;;;2.10;;
68475;SDS011;55464;48.266;14.188;2022-08-03T09:02:42;3.65;;;2.08;;
68475;SDS011;55464;48.266;14.188;2022-08-03T09:05:13;1.88;;;1.77;;
68475;SDS011;55464;48.266;14.188;2022-08-03T09:07:40;1.88;;;1.77;;
68475;SDS011;55464;48.266;14.188;2022-08-03T09:10:07;2.20;;;2.10;;
68475;SDS011;55464;48.266;14.188;2022-08-03T09:12:38;2.50;;;2.05;;
68475;SDS011;55464;48.266;14.188;2022-08-03T09:15:23;3.42;;;2.17;;
68475;SDS011;55464;48.266;14.188;2022-08-03T09:17:56;2.63;;;2.10;;
68475;SDS011;55464;48.266;14.188;2022-08-03T09:20:24;2.10;;;2.00;;
68475;SDS011;55464;48.266;14.188;2022-08-03T09:22:52;2.38;;;1.83;;
68475;SDS011;55464;48.266;14.188;2022-08-03T09:25:33;3.05;;;1.80;;
68475;SDS011;55464;48.266;14.188;2022-08-03T09:28:16;2.20;;;2.00;;
68475;SDS011;55464;48.266;14.188;2022-08-03T09:30:44;2.08;;;1.95;;
68475;SDS011;55464;48.266;14.188;2022-08-03T09:33:21;1.98;;;1.83;;
68475;SDS011;55464;48.266;14.188;2022-08-03T09:35:47;2.08;;;1.80;;
68475;SDS011;55464;48.266;14.188;2022-08-03T09:38:22;1.95;;;1.85;;
68475;SDS011;55464;48.266;14.188;2022-08-03T09:40:50;3.72;;;1.70;;
68475;SDS011;55464;48.266;14.188;2022-08-03T09:43:17;1.80;;;1.70;;
68475;SDS011;55464;48.266;14.188;2022-08-03T09:45:43;2.30;;;2.10;;
68475;SDS011;55464;48.266;14.188;2022-08-03T09:48:28;1.60;;;1.50;;
68475;SDS011;55464;48.266;14.188;2022-08-03T09:50:55;1.70;;;1.60;;
68475;SDS011;55464;48.266;14.188;2022-08-03T09:53:25;2.78;;;2.10;;
68475;SDS011;55464;48.266;14.188;2022-08-03T09:58:21;1.80;;;1.70;;
68475;SDS011;55464;48.266;14.188;2022-08-03T10:01:02;1.70;;;1.60;;
68475;SDS011;55464;48.266;14.188;2022-08-03T10:03:30;2.55;;;1.98;;
68475;SDS011;55464;48.266;14.188;2022-08-03T10:06:13;1.77;;;1.67;;
68475;SDS011;55464;48.266;14.188;2022-08-03T10:09:09;6.90;;;1.80;;
68475;SDS011;55464;48.266;14.188;2022-08-03T10:11:41;2.03;;;1.80;;
68475;SDS011;55464;48.266;14.188;2022-08-03T10:14:09;1.60;;;1.50;;
68475;SDS011;55464;48.266;14.188;2022-08-03T10:16:42;1.73;;;1.60;;
68475;SDS011;55464;48.266;14.188;2022-08-03T10:19:08;1.63;;;1.38;;
68475;SDS011;55464;48.266;14.188;2022-08-03T10:21:35;1.60;;;1.50;;
68475;SDS011;55464;48.266;14.188;2022-08-03T10:24:04;2.05;;;1.85;;
68475;SDS011;55464;48.266;14.188;2022-08-03T10:26:32;1.75;;;1.65;;
68475;SDS011;55464;48.266;14.188;2022-08-03T10:28:59;2.33;;;1.70;;
68475;SDS011;55464;48.266;14.188;2022-08-03T10:31:38;4.95;;;1.65;;
68475;SDS011;55464;48.266;14.188;2022-08-03T10:34:14;1.80;;;1.50;;
68475;SDS011;55464;48.266;14.188;2022-08-03T10:36:43;1.70;;;1.60;;
68475;SDS011;55464;48.266;14.188;2022-08-03T10:39:11;1.67;;;1.58;;
68475;SDS011;55464;48.266;14.188;2022-08-03T10:41:38;2.10;;;1.85;;
68475;SDS011;55464;48.266;14.188;2022-08-03T10:44:14;3.63;;;1.98;;
68475;SDS011;55464;48.266;14.188;2022-08-03T10:46:43;1.85;;;1.75;;
68475;SDS011;55464;48.266;14.188;2022-08-03T10:49:14;1.83;;;1.58;;
68475;SDS011;55464;48.266;14.188;2022-08-03T10:51:44;1.70;;;1.60;;
68475;SDS011;55464;48.266;14.188;2022-08-03T11:00:22;1.58;;;1.48;;
68475;SDS011;55464;48.266;14.188;2022-08-03T11:05:37;1.40;;;1.30;;
68475;SDS011;55464;48.266;14.188;2022-08-03T11:10:43;3.72;;;1.20;;
68475;SDS011;55464;48.266;14.188;2022-08-03T11:13:09;1.50;;;1.40;;
68475;SDS011;55464;48.266;14.188;2022-08-03T11:15:39;1.30;;;1.20;;
68475;SDS011;55464;48.266;14.188;2022-08-03T11:18:09;1.48;;;1.35;;
68475;SDS011;55464;48.266;14.188;2022-08-03T11:21:10;2.22;;;1.40;;
68475;SDS011;55464;48.266;14.188;2022-08-03T11:23:42;1.35;;;1.20;;
68475;SDS011;55464;48.266;14.188;2022-08-03T11:28:43;1.30;;;1.20;;
68475;SDS011;55464;48.266;14.188;2022-08-03T11:36:29;2.70;;;1.17;;
68475;SDS011;55464;48.266;14.188;2022-08-03T11:39:14;1.70;;;1.42;;
68475;SDS011;55464;48.266;14.188;2022-08-03T11:41:40;2.25;;;1.60;;
68475;SDS011;55464;48.266;14.188;2022-08-03T11:44:06;1.98;;;1.30;;
68475;SDS011;55464;48.266;14.188;2022-08-03T11:46:37;1.40;;;1.27;;
68475;SDS011;55464;48.266;14.188;2022-08-03T11:49:04;1.63;;;1.35;;
68475;SDS011;55464;48.266;14.188;2022-08-03T11:51:33;3.58;;;1.25;;
68475;SDS011;55464;48.266;14.188;2022-08-03T11:54:02;1.60;;;1.50;;
68475;SDS011;55464;48.266;14.188;2022-08-03T11:56:42;1.83;;;1.30;;
68475;SDS011;55464;48.266;14.188;2022-08-03T11:59:10;1.48;;;1.38;;
68475;SDS011;55464;48.266;14.188;2022-08-03T12:01:35;1.10;;;1.10;;
68475;SDS011;55464;48.266;14.188;2022-08-03T12:04:03;1.80;;;1.55;;
68475;SDS011;55464;48.266;14.188;2022-08-03T12:06:29;1.60;;;1.17;;
68475;SDS011;55464;48.266;14.188;2022-08-03T12:08:55;1.10;;;1.10;;
68475;SDS011;55464;48.266;14.188;2022-08-03T12:11:20;1.27;;;1.00;;
68475;SDS011;55464;48.266;14.188;2022-08-03T12:13:48;1.98;;;1.10;;
68475;SDS011;55464;48.266;14.188;2022-08-03T12:16:24;1.48;;;1.38;;
68475;SDS011;55464;48.266;14.188;2022-08-03T12:19:02;1.52;;;1.33;;
68475;SDS011;55464;48.266;14.188;2022-08-03T12:21:29;2.65;;;1.17;;
68475;SDS011;55464;48.266;14.188;2022-08-03T12:23:58;1.58;;;1.48;;
68475;SDS011;55464;48.266;14.188;2022-08-03T12:26:26;1.52;;;1.30;;
68475;SDS011;55464;48.266;14.188;2022-08-03T12:28:52;1.30;;;1.20;;
68475;SDS011;55464;48.266;14.188;2022-08-03T12:31:18;1.20;;;1.10;;
68475;SDS011;55464;48.266;14.188;2022-08-03T12:33:54;1.13;;;1.08;;
68475;SDS011;55464;48.266;14.188;2022-08-03T12:36:28;1.38;;;1.15;;
68475;SDS011;55464;48.266;14.188;2022-08-03T12:39:06;1.48;;;1.38;;
68475;SDS011;55464;48.266;14.188;2022-08-03T12:41:33;2.53;;;1.30;;
68475;SDS011;55464;48.266;14.188;2022-08-03T12:44:01;2.88;;;1.10;;
68475;SDS011;55464;48.266;14.188;2022-08-03T12:46:32;1.05;;;1.05;;
68475;SDS011;55464;48.266;14.188;2022-08-03T12:54:18;1.45;;;1.20;;
68475;SDS011;55464;48.266;14.188;2022-08-03T12:56:58;1.55;;;1.45;;
68475;SDS011;55464;48.266;14.188;2022-08-03T12:59:28;2.35;;;0.95;;
68475;SDS011;55464;48.266;14.188;2022-08-03T13:01:55;1.80;;;1.20;;
68475;SDS011;55464;48.266;14.188;2022-08-03T13:04:27;2.13;;;1.10;;
68475;SDS011;55464;48.266;14.188;2022-08-03T13:07:04;1.17;;;1.08;;
68475;SDS011;55464;48.266;14.188;2022-08-03T13:09:41;1.17;;;1.08;;
68475;SDS011;55464;48.266;14.188;2022-08-03T13:14:39;1.10;;;0.95;;
68475;SDS011;55464;48.266;14.188;2022-08-03T13:17:06;1.10;;;1.10;;
68475;SDS011;55464;48.266;14.188;2022-08-03T13:19:32;2.45;;;1.38;;
68475;SDS011;55464;48.266;14.188;2022-08-03T13:21:59;0.90;;;0.90;;
68475;SDS011;55464;48.266;14.188;2022-08-03T13:24:26;1.13;;;1.02;;
68475;SDS011;55464;48.266;14.188;2022-08-03T13:26:52;2.50;;;0.95;;
68475;SDS011;55464;48.266;14.188;2022-08-03T13:29:17;1.00;;;0.90;;
68475;SDS011;55464;48.266;14.188;2022-08-03T13:31:43;1.00;;;1.00;;
68475;SDS011;55464;48.266;14.188;2022-08-03T13:34:09;1.33;;;1.05;;
68475;SDS011;55464;48.266;14.188;2022-08-03T13:36:34;2.17;;;1.10;;
68475;SDS011;55464;48.266;14.188;2022-08-03T13:39:00;0.85;;;0.85;;
68475;SDS011;55464;48.266;14.188;2022-08-03T13:41:26;1.98;;;1.27;;
68475;SDS011;55464;48.266;14.188;2022-08-03T13:43:51;2.50;;;0.93;;
68475;SDS011;55464;48.266;14.188;2022-08-03T13:46:17;2.55;;;1.00;;
68475;SDS011;55464;48.266;14.188;2022-08-03T13:48:44;0.93;;;0.90;;
68475;SDS011;55464;48.266;14.188;2022-08-03T13:51:09;1.00;;;0.90;;
68475;SDS011;55464;48.266;14.188;2022-08-03T13:53:35;0.80;;;0.80;;
68475;SDS011;55464;48.266;14.188;2022-08-03T13:56:01;0.90;;;0.80;;
68475;SDS011;55464;48.266;14.188;2022-08-03T13:58:26;1.10;;;1.00;;
68475;SDS011;55464;48.266;14.188;2022-08-03T14:00:52;2.10;;;1.20;;
68475;SDS011;55464;48.266;14.188;2022-08-03T14:03:18;1.15;;;1.05;;
68475;SDS011;55464;48.266;14.188;2022-08-03T14:05:43;1.55;;;1.20;;
68475;SDS011;55464;48.266;14.188;2022-08-03T14:08:09;1.48;;;1.30;;
68475;SDS011;55464;48.266;14.188;2022-08-03T14:10:36;2.25;;;1.40;;
68475;SDS011;55464;48.266;14.188;2022-08-03T14:13:04;1.42;;;1.00;;
68475;SDS011;55464;48.266;14.188;2022-08-03T14:15:31;1.33;;;1.20;;
68475;SDS011;55464;48.266;14.188;2022-08-03T14:17:57;3.65;;;1.42;;
68475;SDS011;55464;48.266;14.188;2022-08-03T14:20:23;1.92;;;1.45;;
68475;SDS011;55464;48.266;14.188;2022-08-03T14:22:48;1.13;;;1.00;;
68475;SDS011;55464;48.266;14.188;2022-08-03T14:25:14;1.17;;;0.88;;
68475;SDS011;55464;48.266;14.188;2022-08-03T14:27:40;1.20;;;1.02;;
68475;SDS011;55464;48.266;14.188;2022-08-03T14:30:05;2.20;;;1.05;;
68475;SDS011;55464;48.266;14.188;2022-08-03T14:32:31;1.20;;;1.10;;
68475;SDS011;55464;48.266;14.188;2022-08-03T14:34:57;2.63;;;1.13;;
68475;SDS011;55464;48.266;14.188;2022-08-03T14:37:23;1.40;;;1.10;;
68475;SDS011;55464;48.266;14.188;2022-08-03T14:39:49;1.38;;;1.00;;
68475;SDS011;55464;48.266;14.188;2022-08-03T14:42:14;1.85;;;1.05;;
68475;SDS011;55464;48.266;14.188;2022-08-03T14:44:40;2.75;;;1.10;;
68475;SDS011;55464;48.266;14.188;2022-08-03T14:47:06;1.52;;;1.13;;
68475;SDS011;55464;48.266;14.188;2022-08-03T14:49:32;1.50;;;1.13;;
68475;SDS011;55464;48.266;14.188;2022-08-03T14:51:58;1.65;;;1.13;;
68475;SDS011;55464;48.266;14.188;2022-08-03T14:54:24;1.75;;;1.10;;
68475;SDS011;55464;48.266;14.188;2022-08-03T14:56:50;0.85;;;0.85;;
68475;SDS011;55464;48.266;14.188;2022-08-03T14:59:15;1.48;;;1.00;;
68475;SDS011;55464;48.266;14.188;2022-08-03T15:01:41;2.28;;;1.13;;
68475;SDS011;55464;48.266;14.188;2022-08-03T15:04:07;1.90;;;0.90;;
68475;SDS011;55464;48.266;14.188;2022-08-03T15:06:32;1.40;;;1.00;;
68475;SDS011;55464;48.266;14.188;2022-08-03T15:08:58;0.75;;;0.75;;
68475;SDS011;55464;48.266;14.188;2022-08-03T15:11:24;0.60;;;0.60;;
68475;SDS011;55464;48.266;14.188;2022-08-03T15:13:49;1.23;;;0.80;;
68475;SDS011;55464;48.266;14.188;2022-08-03T15:16:15;4.85;;;0.80;;
68475;SDS011;55464;48.266;14.188;2022-08-03T15:18:40;3.30;;;0.88;;
68475;SDS011;55464;48.266;14.188;2022-08-03T15:21:06;4.00;;;0.98;;
68475;SDS011;55464;48.266;14.188;2022-08-03T15:23:32;2.20;;;0.85;;
68475;SDS011;55464;48.266;14.188;2022-08-03T15:25:57;3.92;;;1.00;;
68475;SDS011;55464;48.266;14.188;2022-08-03T15:28:23;0.68;;;0.60;;
68475;SDS011;55464;48.266;14.188;2022-08-03T15:30:50;3.60;;;0.95;;